createdAt,value
2023-03-14T01:02:38.641Z,95865.00
2023-03-14T01:05:08.277Z,95864.00
2023-03-14T01:07:36.672Z,95851.00
2023-03-14T01:10:09.552Z,95836.00
2023-03-14T01:12:39.052Z,95822.00
2023-03-14T01:15:08.834Z,95807.00
2023-03-14T01:17:40.419Z,95797.00
2023-03-14T01:20:13.072Z,95759.00
2023-03-14T01:22:41.754Z,95732.00
2023-03-14T01:25:13.581Z,95751.00
2023-03-14T01:27:41.881Z,95750.00
2023-03-14T01:30:12.900Z,95745.00
2023-03-14T01:32:42.805Z,95727.00
2023-03-14T01:35:11.204Z,95722.00
2023-03-14T01:37:40.098Z,95707.00
2023-03-14T01:40:17.201Z,95714.00
2023-03-14T01:42:56.737Z,95722.00
2023-03-14T01:46:21.917Z,95732.00
2023-03-14T01:49:01.899Z,95753.00
2023-03-14T01:51:41.637Z,95775.00
2023-03-14T01:54:17.491Z,95793.00
2023-03-14T01:56:50.578Z,95802.00
2023-03-14T01:59:19.174Z,95809.00
2023-03-14T02:01:51.400Z,95811.00
2023-03-14T02:04:22.690Z,95792.00
2023-03-14T02:07:00.632Z,95801.00
2023-03-14T02:09:33.923Z,95783.00
2023-03-14T02:12:02.903Z,95777.00
2023-03-14T02:14:48.964Z,95786.00
2023-03-14T02:17:27.677Z,95782.00
2023-03-14T02:20:40.706Z,95775.00
2023-03-14T02:23:09.048Z,95762.00
2023-03-14T02:25:45.772Z,95765.00
2023-03-14T02:28:16.626Z,95753.00
2023-03-14T02:30:45.885Z,95750.00
2023-03-14T02:33:20.018Z,95758.00
2023-03-14T02:35:54.936Z,95766.00
2023-03-14T02:38:31.195Z,95762.00
2023-03-14T02:41:01.766Z,95740.00
2023-03-14T02:43:34.482Z,95736.00
2023-03-14T02:46:09.668Z,95744.00
2023-03-14T02:48:43.225Z,95748.00
2023-03-14T02:51:13.842Z,95753.00
2023-03-14T02:53:43.642Z,95742.00
2023-03-14T02:56:14.270Z,95733.00
2023-03-14T02:58:43.804Z,95731.00
2023-03-14T03:01:26.708Z,95736.00
2023-03-14T03:03:55.269Z,95732.00
2023-03-14T03:06:23.446Z,95729.00
2023-03-14T03:08:51.927Z,95717.00
2023-03-14T03:11:20.128Z,95734.00
2023-03-14T03:13:49.673Z,95750.00
2023-03-14T03:16:17.882Z,95736.00
2023-03-14T03:18:45.995Z,95734.00
2023-03-14T03:21:14.111Z,95715.00
2023-03-14T03:23:45.121Z,95716.00
2023-03-14T03:26:13.295Z,95719.00
2023-03-14T03:28:41.705Z,95700.00
2023-03-14T03:31:13.381Z,95701.00
2023-03-14T03:33:41.814Z,95687.00
2023-03-14T03:36:12.099Z,95697.00
2023-03-14T03:38:41.731Z,95701.00
2023-03-14T03:41:11.148Z,95711.00
2023-03-14T03:43:39.245Z,95719.00
2023-03-14T03:46:11.716Z,95725.00
2023-03-14T03:48:40.141Z,95693.00
2023-03-14T03:51:08.739Z,95701.00
2023-03-14T03:53:38.180Z,95707.00
2023-03-14T03:56:11.934Z,95697.00
2023-03-14T03:58:41.205Z,95688.00
2023-03-14T04:01:11.609Z,95673.00
2023-03-14T04:03:41.462Z,95690.00
2023-03-14T04:06:13.104Z,95666.00
2023-03-14T04:08:42.899Z,95676.00
2023-03-14T04:11:16.044Z,95668.00
2023-03-14T04:14:00.186Z,95658.00
2023-03-14T04:16:32.360Z,95641.00
2023-03-14T04:19:06.415Z,95646.00
2023-03-14T04:21:34.864Z,95657.00
2023-03-14T04:24:03.461Z,95645.00
2023-03-14T04:26:35.045Z,95645.00
2023-03-14T04:29:03.233Z,95644.00
2023-03-14T04:31:33.234Z,95639.00
2023-03-14T04:34:01.512Z,95632.00
2023-03-14T04:36:38.452Z,95639.00
2023-03-14T04:39:10.600Z,95647.00
2023-03-14T04:41:42.370Z,95657.00
2023-03-14T04:44:12.384Z,95647.00
2023-03-14T04:46:42.023Z,95650.00
2023-03-14T04:49:10.695Z,95656.00
2023-03-14T04:51:40.063Z,95651.00
2023-03-14T04:54:08.281Z,95662.00
2023-03-14T04:56:37.325Z,95651.00
2023-03-14T04:59:06.032Z,95658.00
2023-03-14T05:01:37.128Z,95657.00
2023-03-14T05:04:25.544Z,95670.00
2023-03-14T05:07:04.295Z,95668.00
2023-03-14T05:09:46.900Z,95659.00
2023-03-14T05:12:42.254Z,95649.00
2023-03-14T05:15:28.485Z,95637.00
2023-03-14T05:18:20.342Z,95635.00
2023-03-14T05:21:13.080Z,95638.00
2023-03-14T05:23:41.182Z,95635.00
2023-03-14T05:26:27.929Z,95631.00
2023-03-14T05:29:16.992Z,95631.00
2023-03-14T05:32:05.375Z,95627.00
2023-03-14T05:34:53.759Z,95630.00
2023-03-14T05:37:33.700Z,95621.00
2023-03-14T05:40:31.536Z,95613.00
2023-03-14T05:43:15.684Z,95609.00
2023-03-14T05:46:00.579Z,95616.00
2023-03-14T05:48:46.976Z,95610.00
2023-03-14T05:51:24.434Z,95599.00
2023-03-14T05:54:21.076Z,95598.00
2023-03-14T05:57:12.458Z,95600.00
2023-03-14T06:00:11.975Z,95606.00
2023-03-14T06:02:53.240Z,95592.00
2023-03-14T06:05:26.205Z,95596.00
2023-03-14T06:07:59.578Z,95605.00
2023-03-14T06:10:32.668Z,95605.00
2023-03-14T06:13:00.847Z,95590.00
2023-03-14T06:15:30.879Z,95605.00
2023-03-14T06:17:59.766Z,95586.00
2023-03-14T06:20:28.955Z,95600.00
2023-03-14T06:22:57.234Z,95605.00
2023-03-14T06:25:25.378Z,95600.00
2023-03-14T06:27:54.805Z,95591.00
2023-03-14T06:30:23.551Z,95593.00
2023-03-14T06:32:52.000Z,95596.00
2023-03-14T06:35:23.084Z,95599.00
2023-03-14T06:37:51.261Z,95598.00
2023-03-14T06:40:20.168Z,95605.00
2023-03-14T06:42:57.240Z,95602.00
2023-03-14T06:45:27.554Z,95587.00
2023-03-14T06:47:56.877Z,95605.00
2023-03-14T06:50:30.938Z,95602.00
2023-03-14T06:53:00.459Z,95617.00
2023-03-14T06:55:29.392Z,95611.00
2023-03-14T06:57:59.035Z,95606.00
2023-03-14T07:00:28.272Z,95609.00
2023-03-14T07:02:57.719Z,95602.00
2023-03-14T07:05:35.732Z,95593.00
2023-03-14T07:08:04.055Z,95620.00
2023-03-14T07:10:32.232Z,95619.00
2023-03-14T07:13:03.061Z,95610.00
2023-03-14T07:15:35.836Z,95613.00
2023-03-14T07:18:08.885Z,95620.00
2023-03-14T07:20:37.079Z,95629.00
2023-03-14T07:23:05.952Z,95623.00
2023-03-14T07:25:48.900Z,95631.00
2023-03-14T07:28:21.107Z,95623.00
2023-03-14T07:30:52.573Z,95636.00
2023-03-14T07:33:28.569Z,95632.00
2023-03-14T07:35:57.422Z,95633.00
2023-03-14T07:38:25.677Z,95624.00
2023-03-14T07:41:14.204Z,95620.00
2023-03-14T07:44:01.800Z,95630.00
2023-03-14T07:46:29.936Z,95647.00
2023-03-14T07:48:58.081Z,95624.00
2023-03-14T07:51:26.297Z,95634.00
2023-03-14T07:53:54.442Z,95645.00
2023-03-14T07:56:22.609Z,95638.00
2023-03-14T07:58:50.721Z,95641.00
2023-03-14T08:01:20.206Z,95645.00
2023-03-14T08:03:48.381Z,95640.00
2023-03-14T08:06:16.604Z,95633.00
2023-03-14T08:08:44.807Z,95636.00
2023-03-14T08:11:13.038Z,95624.00
2023-03-14T08:13:41.296Z,95629.00
2023-03-14T08:16:10.765Z,95622.00
2023-03-14T08:18:40.368Z,95618.00
2023-03-14T08:21:08.687Z,95622.00
2023-03-14T08:23:36.880Z,95605.00
2023-03-14T08:26:05.175Z,95603.00
2023-03-14T08:28:36.230Z,95597.00
2023-03-14T08:31:04.723Z,95606.00
2023-03-14T08:33:32.915Z,95603.00
2023-03-14T08:36:04.093Z,95588.00
2023-03-14T08:38:32.396Z,95599.00
2023-03-14T08:41:03.177Z,95583.00
2023-03-14T08:43:31.957Z,95594.00
2023-03-14T08:46:01.119Z,95597.00
2023-03-14T08:48:31.437Z,95587.00
2023-03-14T08:51:07.954Z,95591.00
2023-03-14T08:53:36.586Z,95587.00
2023-03-14T08:56:07.056Z,95589.00
2023-03-14T08:58:35.292Z,95595.00
2023-03-14T09:01:03.615Z,95591.00
2023-03-14T09:03:31.922Z,95593.00
2023-03-14T09:06:05.877Z,95590.00
2023-03-14T09:08:37.281Z,95603.00
2023-03-14T09:11:10.524Z,95596.00
2023-03-14T09:13:39.625Z,95604.00
2023-03-14T09:16:09.861Z,95598.00
2023-03-14T09:18:38.497Z,95587.00
2023-03-14T09:21:07.288Z,95588.00
2023-03-14T09:23:36.853Z,95587.00
2023-03-14T09:26:05.171Z,95598.00
2023-03-14T09:28:33.351Z,95583.00
2023-03-14T09:31:09.075Z,95593.00
2023-03-14T09:33:37.918Z,95585.00
2023-03-14T09:36:08.104Z,95585.00
2023-03-14T09:38:37.912Z,95572.00
2023-03-14T09:41:18.260Z,95573.00
2023-03-14T09:43:51.960Z,95574.00
2023-03-14T09:46:20.996Z,95577.00
2023-03-14T09:48:49.458Z,95590.00
2023-03-14T09:51:22.619Z,95594.00
2023-03-14T09:53:53.647Z,95590.00
2023-03-14T09:56:27.013Z,95587.00
2023-03-14T09:58:59.804Z,95582.00
2023-03-14T10:01:32.773Z,95583.00
2023-03-14T10:04:08.503Z,95577.00
2023-03-14T10:06:36.736Z,95582.00
2023-03-14T10:09:07.355Z,95580.00
2023-03-14T10:11:35.452Z,95585.00
2023-03-14T10:14:09.989Z,95565.00
2023-03-14T10:16:43.487Z,95580.00
2023-03-14T10:19:15.578Z,95575.00
2023-03-14T10:21:46.178Z,95571.00
2023-03-14T10:24:24.785Z,95568.00
2023-03-14T10:26:56.200Z,95570.00
2023-03-14T10:29:24.735Z,95564.00
2023-03-14T10:31:56.177Z,95556.00
2023-03-14T10:34:28.502Z,95547.00
2023-03-14T10:37:00.287Z,95555.00
2023-03-14T10:39:50.777Z,95552.00
2023-03-14T10:42:23.769Z,95556.00
2023-03-14T10:44:58.214Z,95561.00
2023-03-14T10:47:30.250Z,95553.00
2023-03-14T10:50:16.561Z,95560.00
2023-03-14T10:53:01.992Z,95573.00
2023-03-14T10:55:43.243Z,95546.00
2023-03-14T10:58:27.678Z,95560.00
2023-03-14T11:01:20.053Z,95561.00
2023-03-14T11:03:58.575Z,95548.00
2023-03-14T11:06:40.545Z,95562.00
2023-03-14T11:09:24.107Z,95565.00
2023-03-14T11:11:53.846Z,95563.00
2023-03-14T11:14:33.408Z,95553.00
2023-03-14T11:17:09.649Z,95553.00
2023-03-14T11:20:14.297Z,95564.00
2023-03-14T11:22:49.424Z,95570.00
2023-03-14T11:25:29.165Z,95564.00
2023-03-14T11:28:11.977Z,95558.00
2023-03-14T11:30:50.363Z,95590.00
2023-03-14T11:33:24.567Z,95581.00
2023-03-14T11:36:02.155Z,95583.00
2023-03-14T11:38:36.872Z,95587.00
2023-03-14T11:41:11.357Z,95570.00
2023-03-14T11:43:44.831Z,95582.00
2023-03-14T11:46:21.952Z,95577.00
2023-03-14T11:49:03.543Z,95562.00
2023-03-14T11:51:36.438Z,95551.00
2023-03-14T11:54:16.575Z,95543.00
2023-03-14T11:56:53.638Z,95543.00
2023-03-14T11:59:32.602Z,95544.00
2023-03-14T12:02:06.644Z,95530.00
2023-03-14T12:04:56.187Z,95533.00
2023-03-14T12:07:38.922Z,95539.00
2023-03-14T12:10:07.946Z,95528.00
2023-03-14T12:12:37.090Z,95528.00
2023-03-14T12:15:20.363Z,95520.00
2023-03-14T12:17:54.572Z,95510.00
2023-03-14T12:20:25.307Z,95502.00
2023-03-14T12:22:57.746Z,95510.00
2023-03-14T12:25:29.049Z,95513.00
2023-03-14T12:28:22.481Z,95518.00
2023-03-14T12:30:51.994Z,95519.00
2023-03-14T12:33:35.978Z,95520.00
2023-03-14T12:36:58.354Z,95519.00
2023-03-14T12:39:45.112Z,95497.00
2023-03-14T12:42:21.871Z,95516.00
2023-03-14T12:44:51.743Z,95521.00
2023-03-14T12:48:04.258Z,95511.00
2023-03-14T12:50:43.472Z,95500.00
2023-03-14T12:54:15.852Z,95503.00
2023-03-14T12:57:01.507Z,95507.00
2023-03-14T12:59:37.165Z,95503.00
2023-03-14T13:02:27.367Z,95508.00
2023-03-14T13:05:12.383Z,95516.00
2023-03-14T13:08:09.347Z,95523.00
2023-03-14T13:10:51.001Z,95533.00
2023-03-14T13:13:24.394Z,95556.00
2023-03-14T13:16:01.040Z,95556.00
2023-03-14T13:18:36.062Z,95578.00
2023-03-14T13:21:11.893Z,95571.00
2023-03-14T13:23:40.438Z,95567.00
2023-03-14T13:26:16.368Z,95576.00
2023-03-14T13:28:44.598Z,95589.00
2023-03-14T13:31:25.267Z,95586.00
2023-03-14T13:34:01.255Z,95595.00
2023-03-14T13:36:31.042Z,95593.00
2023-03-14T13:39:01.029Z,95605.00
2023-03-14T13:41:30.668Z,95596.00
2023-03-14T13:44:08.367Z,95619.00
2023-03-14T13:46:38.251Z,95618.00
2023-03-14T13:49:11.396Z,95624.00
2023-03-14T13:51:42.412Z,95610.00
2023-03-14T13:54:17.617Z,95615.00
2023-03-14T13:56:46.588Z,95615.00
2023-03-14T13:59:25.827Z,95608.00
2023-03-14T14:01:55.735Z,95615.00
2023-03-14T14:04:27.975Z,95623.00
2023-03-14T14:07:00.539Z,95629.00
2023-03-14T14:09:32.609Z,95634.00
2023-03-14T14:12:21.694Z,95639.00
2023-03-14T14:14:57.252Z,95640.00
2023-03-14T14:17:31.569Z,95651.00
2023-03-14T14:20:01.534Z,95661.00
2023-03-14T14:22:32.522Z,95671.00
2023-03-14T14:25:02.611Z,95686.00
2023-03-14T14:27:40.071Z,95724.00
2023-03-14T14:30:33.035Z,95740.00
2023-03-14T14:33:23.206Z,95743.00
2023-03-14T14:35:58.157Z,95751.00
2023-03-14T14:38:28.761Z,95770.00
2023-03-14T14:41:04.528Z,95766.00
2023-03-14T14:43:40.796Z,95780.00
2023-03-14T14:46:12.131Z,95804.00
2023-03-14T14:48:40.600Z,95835.00
2023-03-14T14:51:09.672Z,95827.00
2023-03-14T14:53:42.782Z,95832.00
2023-03-14T14:56:23.216Z,95855.00
2023-03-14T14:58:52.009Z,95884.00
2023-03-14T15:01:23.956Z,95888.00
2023-03-14T15:03:54.905Z,95914.00
2023-03-14T15:06:27.784Z,95906.00
2023-03-14T15:08:57.418Z,95916.00
2023-03-14T15:11:28.253Z,95926.00
2023-03-14T15:13:56.669Z,95924.00
2023-03-14T15:16:30.616Z,95944.00
2023-03-14T15:19:03.264Z,95960.00
2023-03-14T15:21:35.125Z,95941.00
2023-03-14T15:24:06.807Z,95972.00
2023-03-14T15:26:34.906Z,95971.00
2023-03-14T15:29:03.164Z,95994.00
2023-03-14T15:31:31.289Z,95983.00
2023-03-14T15:33:59.454Z,95999.00
2023-03-14T15:36:31.573Z,95986.00
2023-03-14T15:39:00.741Z,95985.00
2023-03-14T15:41:30.658Z,95989.00
2023-03-14T15:43:58.931Z,95972.00
2023-03-14T15:46:28.724Z,96003.00
2023-03-14T15:48:58.950Z,95987.00
2023-03-14T15:51:27.226Z,95991.00
2023-03-14T15:53:55.347Z,96017.00
2023-03-14T15:56:25.951Z,96012.00
2023-03-14T15:58:56.812Z,96015.00
2023-03-14T16:01:25.598Z,96047.00
2023-03-14T16:03:54.192Z,96038.00
2023-03-14T16:06:22.533Z,96043.00
2023-03-14T16:08:50.747Z,96049.00
2023-03-14T16:11:21.557Z,96050.00
2023-03-14T16:13:50.626Z,96061.00
2023-03-14T16:16:20.349Z,96052.00
2023-03-14T16:18:48.655Z,96080.00
2023-03-14T16:21:22.017Z,96077.00
2023-03-14T16:23:50.314Z,96065.00
2023-03-14T16:26:20.938Z,96090.00
2023-03-14T16:28:49.896Z,96091.00
2023-03-14T16:31:23.660Z,96093.00
2023-03-14T16:33:51.887Z,96092.00
2023-03-14T16:36:20.486Z,96105.00
2023-03-14T16:38:49.509Z,96121.00
2023-03-14T16:41:20.516Z,96108.00
2023-03-14T16:43:52.008Z,96115.00
2023-03-14T16:46:24.990Z,96133.00
2023-03-14T16:48:53.264Z,96123.00
2023-03-14T16:51:22.355Z,96135.00
2023-03-14T16:53:51.477Z,96156.00
2023-03-14T16:56:19.952Z,96158.00
2023-03-14T16:58:48.537Z,96165.00
2023-03-14T17:01:18.902Z,96172.00
2023-03-14T17:03:52.578Z,96183.00
2023-03-14T17:06:24.735Z,96180.00
2023-03-14T17:08:54.026Z,96188.00
2023-03-14T17:11:22.893Z,96198.00
2023-03-14T17:13:50.992Z,96190.00
2023-03-14T17:16:19.414Z,96229.00
2023-03-14T17:18:48.951Z,96214.00
2023-03-14T17:21:17.113Z,96209.00
2023-03-14T17:23:45.483Z,96218.00
2023-03-14T17:26:15.454Z,96239.00
2023-03-14T17:28:43.717Z,96222.00
2023-03-14T17:31:16.711Z,96241.00
2023-03-14T17:33:45.865Z,96257.00
2023-03-14T17:36:15.609Z,96254.00
2023-03-14T17:38:43.901Z,96256.00
2023-03-14T17:41:15.087Z,96282.00
2023-03-14T17:43:44.095Z,96282.00
2023-03-14T17:46:16.773Z,96291.00
2023-03-14T17:48:46.934Z,96294.00
2023-03-14T17:51:18.083Z,96301.00
2023-03-14T17:53:46.287Z,96300.00
2023-03-14T17:56:14.442Z,96307.00
2023-03-14T17:58:43.842Z,96332.00
2023-03-14T18:01:14.810Z,96334.00
2023-03-14T18:03:43.409Z,96348.00
2023-03-14T18:06:13.747Z,96337.00
2023-03-14T18:08:43.956Z,96340.00
2023-03-14T18:11:13.331Z,96372.00
2023-03-14T18:13:41.999Z,96368.00
2023-03-14T18:16:14.580Z,96377.00
2023-03-14T18:18:43.260Z,96413.00
2023-03-14T18:21:11.636Z,96390.00
2023-03-14T18:23:41.781Z,96393.00
2023-03-14T18:26:10.359Z,96397.00
2023-03-14T18:28:38.514Z,96392.00
2023-03-14T18:31:09.569Z,96400.00
2023-03-14T18:33:40.256Z,96410.00
2023-03-14T18:36:09.845Z,96417.00
2023-03-14T18:38:42.982Z,96435.00
2023-03-14T18:41:15.699Z,96438.00
2023-03-14T18:43:44.657Z,96441.00
2023-03-14T18:46:14.092Z,96446.00
2023-03-14T18:48:43.163Z,96449.00
2023-03-14T18:51:15.023Z,96442.00
2023-03-14T18:53:43.901Z,96458.00
2023-03-14T18:56:14.300Z,96455.00
2023-03-14T18:58:43.235Z,96459.00
2023-03-14T19:01:13.809Z,96452.00
2023-03-14T19:03:42.456Z,96475.00
2023-03-14T19:06:12.046Z,96467.00
2023-03-14T19:08:43.060Z,96470.00
2023-03-14T19:11:14.995Z,96472.00
2023-03-14T19:13:43.981Z,96484.00
2023-03-14T19:16:15.260Z,96497.00
2023-03-14T19:18:43.926Z,96499.00
2023-03-14T19:21:14.260Z,96494.00
2023-03-14T19:23:48.774Z,96509.00
2023-03-14T19:26:18.649Z,96502.00
2023-03-14T19:28:46.935Z,96508.00
2023-03-14T19:31:15.466Z,96508.00
2023-03-14T19:33:43.726Z,96520.00
2023-03-14T19:36:22.676Z,96522.00
2023-03-14T19:38:52.129Z,96526.00
2023-03-14T19:41:25.324Z,96527.00
2023-03-14T19:43:54.711Z,96522.00
2023-03-14T19:46:23.992Z,96527.00
2023-03-14T19:48:54.700Z,96532.00
2023-03-14T19:51:23.969Z,96528.00
2023-03-14T19:53:53.060Z,96544.00
2023-03-14T19:56:24.130Z,96540.00
2023-03-14T19:58:52.828Z,96545.00
2023-03-14T20:01:21.709Z,96545.00
2023-03-14T20:03:49.991Z,96548.00
2023-03-14T20:06:18.370Z,96547.00
2023-03-14T20:08:46.519Z,96563.00
2023-03-14T20:11:15.426Z,96554.00
2023-03-14T20:13:45.442Z,96555.00
2023-03-14T20:16:13.930Z,96568.00
2023-03-14T20:18:42.325Z,96577.00
2023-03-14T20:21:13.690Z,96553.00
2023-03-14T20:23:43.505Z,96560.00
2023-03-14T20:26:11.913Z,96568.00
2023-03-14T20:28:42.469Z,96564.00
2023-03-14T20:31:12.215Z,96567.00
2023-03-14T20:33:42.550Z,96588.00
2023-03-14T20:36:11.145Z,96576.00
2023-03-14T20:38:39.583Z,96568.00
2023-03-14T20:41:09.297Z,96580.00
2023-03-14T20:43:38.846Z,96580.00
2023-03-14T20:46:07.531Z,96575.00
2023-03-14T20:48:39.003Z,96579.00
2023-03-14T20:51:07.585Z,96597.00
2023-03-14T20:53:35.908Z,96595.00
2023-03-14T20:56:04.925Z,96588.00
2023-03-14T20:58:33.748Z,96597.00
2023-03-14T21:01:03.569Z,96600.00
2023-03-14T21:03:31.820Z,96595.00
2023-03-14T21:06:01.377Z,96607.00
2023-03-14T21:08:29.641Z,96601.00
2023-03-14T21:10:58.256Z,96601.00
2023-03-14T21:13:26.753Z,96609.00
2023-03-14T21:15:55.374Z,96615.00
2023-03-14T21:18:24.273Z,96629.00
2023-03-14T21:20:55.448Z,96625.00
2023-03-14T21:23:27.326Z,96619.00
2023-03-14T21:25:56.562Z,96635.00
2023-03-14T21:28:25.398Z,96627.00
2023-03-14T21:30:53.822Z,96647.00
2023-03-14T21:33:22.865Z,96643.00
2023-03-14T21:35:53.335Z,96655.00
2023-03-14T21:38:21.624Z,96656.00
2023-03-14T21:40:57.022Z,96676.00
2023-03-14T21:43:25.817Z,96685.00
2023-03-14T21:45:55.138Z,96676.00
2023-03-14T21:48:23.704Z,96691.00
2023-03-14T21:50:52.384Z,96693.00
2023-03-14T21:53:20.913Z,96682.00
2023-03-14T21:55:51.312Z,96682.00
2023-03-14T21:58:19.580Z,96697.00
2023-03-14T22:00:49.384Z,96718.00
2023-03-14T22:03:17.985Z,96715.00
2023-03-14T22:05:47.890Z,96720.00
2023-03-14T22:08:18.055Z,96730.00
2023-03-14T22:10:47.645Z,96740.00
2023-03-14T22:13:18.300Z,96725.00
2023-03-14T22:15:48.328Z,96728.00
2023-03-14T22:18:17.137Z,96723.00
2023-03-14T22:20:46.171Z,96727.00
2023-03-14T22:23:14.634Z,96726.00
2023-03-14T22:25:44.774Z,96722.00
2023-03-14T22:28:13.011Z,96727.00
2023-03-14T22:30:42.782Z,96719.00
2023-03-14T22:33:11.087Z,96707.00
2023-03-14T22:35:39.287Z,96704.00
2023-03-14T22:38:07.533Z,96726.00
2023-03-14T22:40:38.676Z,96721.00
2023-03-14T22:43:06.928Z,96714.00
2023-03-14T22:45:35.190Z,96727.00
2023-03-14T22:48:05.451Z,96745.00
2023-03-14T22:50:33.659Z,96765.00
2023-03-14T22:53:03.303Z,96766.00
2023-03-14T22:55:32.613Z,96767.00
2023-03-14T22:58:00.760Z,96766.00
2023-03-14T23:00:29.380Z,96784.00
2023-03-14T23:02:57.580Z,96791.00
2023-03-14T23:05:27.434Z,96777.00
2023-03-14T23:07:55.552Z,96792.00
2023-03-14T23:10:24.048Z,96791.00
2023-03-14T23:12:54.192Z,96789.00
2023-03-14T23:15:22.398Z,96784.00
2023-03-14T23:17:50.542Z,96790.00
2023-03-14T23:20:18.813Z,96798.00
2023-03-14T23:22:48.256Z,96798.00
2023-03-14T23:25:16.364Z,96810.00
2023-03-14T23:27:46.188Z,96818.00
2023-03-14T23:30:16.276Z,96821.00
2023-03-14T23:32:44.927Z,96831.00
2023-03-14T23:35:14.260Z,96815.00
2023-03-14T23:37:42.767Z,96819.00
2023-03-14T23:40:13.793Z,96821.00
2023-03-14T23:42:42.025Z,96829.00
2023-03-14T23:45:14.033Z,96807.00
2023-03-14T23:47:42.275Z,96808.00
2023-03-14T23:50:12.083Z,96804.00
2023-03-14T23:52:40.353Z,96811.00
2023-03-14T23:55:09.748Z,96822.00
2023-03-14T23:57:39.538Z,96833.00
